sensor_id;sensor_type;location;lat;lon;timestamp;P1;durP1;ratioP1;P2;durP2;ratioP2
65998;SDS011;52766;56.008;37.440;2023-02-01T00:00:58;11.93;;;5.18;;
65998;SDS011;52766;56.008;37.440;2023-02-01T00:03:26;14.30;;;5.55;;
65998;SDS011;52766;56.008;37.440;2023-02-01T00:05:58;16.80;;;5.63;;
65998;SDS011;52766;56.008;37.440;2023-02-01T00:08:24;13.60;;;6.30;;
65998;SDS011;52766;56.008;37.440;2023-02-01T00:11:00;14.20;;;5.68;;
65998;SDS011;52766;56.008;37.440;2023-02-01T00:13:27;16.00;;;6.07;;
65998;SDS011;52766;56.008;37.440;2023-02-01T00:16:03;15.85;;;6.38;;
65998;SDS011;52766;56.008;37.440;2023-02-01T00:18:33;14.57;;;5.45;;
65998;SDS011;52766;56.008;37.440;2023-02-01T00:20:59;17.33;;;6.10;;
65998;SDS011;52766;56.008;37.440;2023-02-01T00:23:28;12.88;;;5.43;;
65998;SDS011;52766;56.008;37.440;2023-02-01T00:25:59;18.38;;;5.75;;
65998;SDS011;52766;56.008;37.440;2023-02-01T00:28:26;16.27;;;5.82;;
65998;SDS011;52766;56.008;37.440;2023-02-01T00:30:59;14.30;;;6.40;;
65998;SDS011;52766;56.008;37.440;2023-02-01T00:33:26;15.25;;;5.82;;
65998;SDS011;52766;56.008;37.440;2023-02-01T00:36:06;15.80;;;6.15;;
65998;SDS011;52766;56.008;37.440;2023-02-01T00:38:34;15.32;;;6.47;;
65998;SDS011;52766;56.008;37.440;2023-02-01T00:41:12;13.95;;;6.20;;
65998;SDS011;52766;56.008;37.440;2023-02-01T00:43:41;15.73;;;6.72;;
65998;SDS011;52766;56.008;37.440;2023-02-01T00:46:07;15.93;;;6.47;;
65998;SDS011;52766;56.008;37.440;2023-02-01T00:48:33;17.55;;;6.53;;
65998;SDS011;52766;56.008;37.440;2023-02-01T00:51:00;17.63;;;7.38;;
65998;SDS011;52766;56.008;37.440;2023-02-01T00:53:26;19.77;;;6.78;;
65998;SDS011;52766;56.008;37.440;2023-02-01T00:55:52;19.45;;;8.95;;
65998;SDS011;52766;56.008;37.440;2023-02-01T00:58:18;19.23;;;7.88;;
65998;SDS011;52766;56.008;37.440;2023-02-01T01:00:44;17.95;;;7.68;;
65998;SDS011;52766;56.008;37.440;2023-02-01T01:03:11;19.52;;;7.43;;
65998;SDS011;52766;56.008;37.440;2023-02-01T01:05:47;19.60;;;7.85;;
65998;SDS011;52766;56.008;37.440;2023-02-01T01:08:14;19.73;;;7.57;;
65998;SDS011;52766;56.008;37.440;2023-02-01T01:10:40;20.05;;;8.48;;
65998;SDS011;52766;56.008;37.440;2023-02-01T01:13:06;26.83;;;9.27;;
65998;SDS011;52766;56.008;37.440;2023-02-01T01:15:36;22.15;;;8.80;;
65998;SDS011;52766;56.008;37.440;2023-02-01T01:18:03;19.80;;;8.30;;
65998;SDS011;52766;56.008;37.440;2023-02-01T01:20:28;19.15;;;7.75;;
65998;SDS011;52766;56.008;37.440;2023-02-01T01:22:54;20.52;;;8.13;;
65998;SDS011;52766;56.008;37.440;2023-02-01T01:25:20;23.25;;;8.50;;
65998;SDS011;52766;56.008;37.440;2023-02-01T01:27:46;21.33;;;8.60;;
65998;SDS011;52766;56.008;37.440;2023-02-01T01:30:13;24.13;;;9.52;;
65998;SDS011;52766;56.008;37.440;2023-02-01T01:32:39;20.73;;;8.52;;
65998;SDS011;52766;56.008;37.440;2023-02-01T01:35:05;22.80;;;7.90;;
65998;SDS011;52766;56.008;37.440;2023-02-01T01:37:31;24.63;;;8.82;;
65998;SDS011;52766;56.008;37.440;2023-02-01T01:39:57;20.85;;;8.15;;
65998;SDS011;52766;56.008;37.440;2023-02-01T01:42:22;21.05;;;7.57;;
65998;SDS011;52766;56.008;37.440;2023-02-01T01:45:05;19.40;;;7.55;;
65998;SDS011;52766;56.008;37.440;2023-02-01T01:47:54;21.88;;;8.32;;
65998;SDS011;52766;56.008;37.440;2023-02-01T01:50:30;20.13;;;7.85;;
65998;SDS011;52766;56.008;37.440;2023-02-01T01:52:58;18.23;;;8.10;;
65998;SDS011;52766;56.008;37.440;2023-02-01T01:55:27;22.83;;;8.55;;
65998;SDS011;52766;56.008;37.440;2023-02-01T01:57:57;21.00;;;8.00;;
65998;SDS011;52766;56.008;37.440;2023-02-01T02:00:29;19.00;;;7.70;;
65998;SDS011;52766;56.008;37.440;2023-02-01T02:02:58;12.20;;;4.80;;
65998;SDS011;52766;56.008;37.440;2023-02-01T02:05:28;10.55;;;3.38;;
65998;SDS011;52766;56.008;37.440;2023-02-01T02:07:56;11.10;;;3.85;;
65998;SDS011;52766;56.008;37.440;2023-02-01T02:10:24;8.70;;;3.22;;
65998;SDS011;52766;56.008;37.440;2023-02-01T02:13:10;10.13;;;3.75;;
65998;SDS011;52766;56.008;37.440;2023-02-01T02:15:38;12.38;;;4.70;;
65998;SDS011;52766;56.008;37.440;2023-02-01T02:18:27;14.35;;;5.88;;
65998;SDS011;52766;56.008;37.440;2023-02-01T02:21:07;15.02;;;5.93;;
65998;SDS011;52766;56.008;37.440;2023-02-01T02:24:16;19.15;;;7.28;;
65998;SDS011;52766;56.008;37.440;2023-02-01T02:41:44;20.70;;;7.95;;
65998;SDS011;52766;56.008;37.440;2023-02-01T02:47:37;25.38;;;10.13;;
65998;SDS011;52766;56.008;37.440;2023-02-01T02:53:18;21.60;;;9.48;;
65998;SDS011;52766;56.008;37.440;2023-02-01T02:56:06;20.48;;;8.73;;
65998;SDS011;52766;56.008;37.440;2023-02-01T02:58:51;24.25;;;8.20;;
65998;SDS011;52766;56.008;37.440;2023-02-01T03:01:35;21.30;;;8.43;;
65998;SDS011;52766;56.008;37.440;2023-02-01T03:04:22;25.73;;;8.45;;
65998;SDS011;52766;56.008;37.440;2023-02-01T03:06:49;18.58;;;8.55;;
65998;SDS011;52766;56.008;37.440;2023-02-01T03:09:31;23.50;;;8.60;;
65998;SDS011;52766;56.008;37.440;2023-02-01T03:12:02;24.88;;;7.85;;
65998;SDS011;52766;56.008;37.440;2023-02-01T03:14:50;20.73;;;7.38;;
65998;SDS011;52766;56.008;37.440;2023-02-01T03:17:20;22.27;;;7.90;;
65998;SDS011;52766;56.008;37.440;2023-02-01T03:19:51;22.27;;;8.93;;
65998;SDS011;52766;56.008;37.440;2023-02-01T03:22:20;19.80;;;8.50;;
65998;SDS011;52766;56.008;37.440;2023-02-01T03:24:51;18.40;;;7.78;;
65998;SDS011;52766;56.008;37.440;2023-02-01T03:27:22;23.65;;;10.15;;
65998;SDS011;52766;56.008;37.440;2023-02-01T03:32:46;21.63;;;7.35;;
65998;SDS011;52766;56.008;37.440;2023-02-01T03:38:08;22.65;;;8.90;;
65998;SDS011;52766;56.008;37.440;2023-02-01T03:40:38;24.27;;;8.07;;
65998;SDS011;52766;56.008;37.440;2023-02-01T03:43:06;20.88;;;7.80;;
65998;SDS011;52766;56.008;37.440;2023-02-01T03:45:36;19.65;;;8.30;;
65998;SDS011;52766;56.008;37.440;2023-02-01T03:48:06;20.52;;;7.85;;
65998;SDS011;52766;56.008;37.440;2023-02-01T03:50:33;21.20;;;8.23;;
65998;SDS011;52766;56.008;37.440;2023-02-01T03:53:08;21.50;;;8.38;;
65998;SDS011;52766;56.008;37.440;2023-02-01T03:55:37;23.98;;;8.23;;
65998;SDS011;52766;56.008;37.440;2023-02-01T03:58:07;20.80;;;8.27;;
65998;SDS011;52766;56.008;37.440;2023-02-01T04:00:44;28.23;;;9.40;;
65998;SDS011;52766;56.008;37.440;2023-02-01T04:03:11;26.85;;;10.10;;
65998;SDS011;52766;56.008;37.440;2023-02-01T04:05:37;30.13;;;11.85;;
65998;SDS011;52766;56.008;37.440;2023-02-01T04:08:06;20.42;;;7.80;;
65998;SDS011;52766;56.008;37.440;2023-02-01T04:10:34;23.02;;;9.23;;
65998;SDS011;52766;56.008;37.440;2023-02-01T04:13:10;26.00;;;8.10;;
65998;SDS011;52766;56.008;37.440;2023-02-01T04:15:39;20.38;;;7.70;;
65998;SDS011;52766;56.008;37.440;2023-02-01T04:18:05;24.08;;;9.07;;
65998;SDS011;52766;56.008;37.440;2023-02-01T04:20:32;20.83;;;8.00;;
65998;SDS011;52766;56.008;37.440;2023-02-01T04:22:59;19.70;;;7.57;;
65998;SDS011;52766;56.008;37.440;2023-02-01T04:25:29;20.60;;;7.95;;
65998;SDS011;52766;56.008;37.440;2023-02-01T04:27:57;21.73;;;7.57;;
65998;SDS011;52766;56.008;37.440;2023-02-01T04:30:24;16.25;;;6.88;;
65998;SDS011;52766;56.008;37.440;2023-02-01T04:32:50;21.90;;;7.78;;
65998;SDS011;52766;56.008;37.440;2023-02-01T04:35:36;19.88;;;7.85;;
65998;SDS011;52766;56.008;37.440;2023-02-01T04:38:03;19.17;;;7.88;;
65998;SDS011;52766;56.008;37.440;2023-02-01T04:40:31;17.08;;;7.00;;
65998;SDS011;52766;56.008;37.440;2023-02-01T04:43:00;20.08;;;7.82;;
65998;SDS011;52766;56.008;37.440;2023-02-01T04:45:29;19.15;;;7.90;;
65998;SDS011;52766;56.008;37.440;2023-02-01T04:47:59;18.23;;;7.97;;
65998;SDS011;52766;56.008;37.440;2023-02-01T04:50:26;18.10;;;7.43;;
65998;SDS011;52766;56.008;37.440;2023-02-01T04:52:52;20.02;;;8.05;;
65998;SDS011;52766;56.008;37.440;2023-02-01T04:55:18;20.48;;;8.52;;
65998;SDS011;52766;56.008;37.440;2023-02-01T04:57:46;19.30;;;8.13;;
65998;SDS011;52766;56.008;37.440;2023-02-01T05:00:12;18.70;;;8.45;;
65998;SDS011;52766;56.008;37.440;2023-02-01T05:02:38;21.38;;;8.85;;
65998;SDS011;52766;56.008;37.440;2023-02-01T05:05:04;20.13;;;8.73;;
65998;SDS011;52766;56.008;37.440;2023-02-01T05:07:32;23.30;;;7.80;;
65998;SDS011;52766;56.008;37.440;2023-02-01T05:10:00;20.88;;;8.77;;
65998;SDS011;52766;56.008;37.440;2023-02-01T05:12:26;25.20;;;8.77;;
65998;SDS011;52766;56.008;37.440;2023-02-01T05:15:15;24.38;;;8.60;;
65998;SDS011;52766;56.008;37.440;2023-02-01T05:17:44;19.48;;;8.00;;
65998;SDS011;52766;56.008;37.440;2023-02-01T05:20:12;28.65;;;8.25;;
65998;SDS011;52766;56.008;37.440;2023-02-01T05:22:40;18.98;;;8.50;;
65998;SDS011;52766;56.008;37.440;2023-02-01T05:25:10;26.13;;;9.43;;
65998;SDS011;52766;56.008;37.440;2023-02-01T05:27:40;21.58;;;8.73;;
65998;SDS011;52766;56.008;37.440;2023-02-01T05:30:06;23.67;;;8.50;;
65998;SDS011;52766;56.008;37.440;2023-02-01T05:32:32;23.63;;;7.70;;
65998;SDS011;52766;56.008;37.440;2023-02-01T05:34:58;21.08;;;7.55;;
65998;SDS011;52766;56.008;37.440;2023-02-01T05:37:24;23.38;;;8.45;;
65998;SDS011;52766;56.008;37.440;2023-02-01T05:39:50;29.33;;;8.73;;
65998;SDS011;52766;56.008;37.440;2023-02-01T05:42:16;23.52;;;8.18;;
65998;SDS011;52766;56.008;37.440;2023-02-01T05:44:42;23.73;;;8.98;;
65998;SDS011;52766;56.008;37.440;2023-02-01T05:47:09;22.35;;;8.98;;
65998;SDS011;52766;56.008;37.440;2023-02-01T05:49:35;22.15;;;8.23;;
65998;SDS011;52766;56.008;37.440;2023-02-01T05:52:01;20.60;;;8.55;;
65998;SDS011;52766;56.008;37.440;2023-02-01T05:54:27;23.67;;;9.07;;
65998;SDS011;52766;56.008;37.440;2023-02-01T05:56:53;30.42;;;10.75;;
65998;SDS011;52766;56.008;37.440;2023-02-01T05:59:19;23.60;;;8.38;;
65998;SDS011;52766;56.008;37.440;2023-02-01T06:01:46;26.80;;;9.60;;
65998;SDS011;52766;56.008;37.440;2023-02-01T06:04:12;22.23;;;9.23;;
65998;SDS011;52766;56.008;37.440;2023-02-01T06:06:38;20.52;;;8.70;;
65998;SDS011;52766;56.008;37.440;2023-02-01T06:09:06;25.73;;;9.27;;
65998;SDS011;52766;56.008;37.440;2023-02-01T06:11:32;24.77;;;8.88;;
65998;SDS011;52766;56.008;37.440;2023-02-01T06:13:59;22.60;;;8.60;;
65998;SDS011;52766;56.008;37.440;2023-02-01T06:16:48;26.00;;;8.75;;
65998;SDS011;52766;56.008;37.440;2023-02-01T06:19:14;22.15;;;8.98;;
65998;SDS011;52766;56.008;37.440;2023-02-01T06:21:40;23.85;;;8.55;;
65998;SDS011;52766;56.008;37.440;2023-02-01T06:24:07;24.85;;;9.65;;
65998;SDS011;52766;56.008;37.440;2023-02-01T06:26:33;23.17;;;8.95;;
65998;SDS011;52766;56.008;37.440;2023-02-01T06:29:02;24.52;;;11.55;;
65998;SDS011;52766;56.008;37.440;2023-02-01T06:31:31;25.88;;;9.40;;
65998;SDS011;52766;56.008;37.440;2023-02-01T06:34:07;22.30;;;9.35;;
65998;SDS011;52766;56.008;37.440;2023-02-01T06:36:36;26.92;;;9.65;;
65998;SDS011;52766;56.008;37.440;2023-02-01T06:39:03;23.60;;;8.75;;
65998;SDS011;52766;56.008;37.440;2023-02-01T06:41:30;30.10;;;9.38;;
65998;SDS011;52766;56.008;37.440;2023-02-01T06:44:03;24.50;;;9.25;;
65998;SDS011;52766;56.008;37.440;2023-02-01T06:46:59;23.02;;;9.57;;
65998;SDS011;52766;56.008;37.440;2023-02-01T06:49:29;25.98;;;9.48;;
65998;SDS011;52766;56.008;37.440;2023-02-01T06:51:59;19.15;;;7.95;;
65998;SDS011;52766;56.008;37.440;2023-02-01T06:54:28;22.13;;;9.15;;
65998;SDS011;52766;56.008;37.440;2023-02-01T06:57:03;25.42;;;10.07;;
65998;SDS011;52766;56.008;37.440;2023-02-01T07:02:36;24.65;;;9.65;;
65998;SDS011;52766;56.008;37.440;2023-02-01T07:12:45;21.15;;;9.35;;
65998;SDS011;52766;56.008;37.440;2023-02-01T07:18:58;23.63;;;8.45;;
65998;SDS011;52766;56.008;37.440;2023-02-01T07:21:25;26.17;;;9.95;;
65998;SDS011;52766;56.008;37.440;2023-02-01T07:23:53;27.20;;;9.75;;
65998;SDS011;52766;56.008;37.440;2023-02-01T07:26:21;27.15;;;9.65;;
65998;SDS011;52766;56.008;37.440;2023-02-01T07:28:49;32.03;;;11.02;;
65998;SDS011;52766;56.008;37.440;2023-02-01T07:31:16;28.92;;;10.57;;
65998;SDS011;52766;56.008;37.440;2023-02-01T07:33:48;26.20;;;10.45;;
65998;SDS011;52766;56.008;37.440;2023-02-01T07:36:20;28.50;;;9.73;;
65998;SDS011;52766;56.008;37.440;2023-02-01T07:38:46;28.27;;;10.48;;
65998;SDS011;52766;56.008;37.440;2023-02-01T07:41:14;34.75;;;11.68;;
65998;SDS011;52766;56.008;37.440;2023-02-01T07:43:54;31.15;;;10.93;;
65998;SDS011;52766;56.008;37.440;2023-02-01T07:46:25;35.15;;;11.63;;
65998;SDS011;52766;56.008;37.440;2023-02-01T07:48:54;32.97;;;11.40;;
65998;SDS011;52766;56.008;37.440;2023-02-01T07:51:23;24.20;;;10.68;;
65998;SDS011;52766;56.008;37.440;2023-02-01T08:01:04;27.50;;;10.90;;
65998;SDS011;52766;56.008;37.440;2023-02-01T08:07:17;30.08;;;9.85;;
65998;SDS011;52766;56.008;37.440;2023-02-01T08:10:34;27.77;;;10.65;;
65998;SDS011;52766;56.008;37.440;2023-02-01T08:17:19;34.90;;;11.52;;
65998;SDS011;52766;56.008;37.440;2023-02-01T08:23:44;30.88;;;10.00;;
65998;SDS011;52766;56.008;37.440;2023-02-01T08:26:42;18.10;;;7.80;;
65998;SDS011;52766;56.008;37.440;2023-02-01T08:30:08;29.88;;;10.18;;
65998;SDS011;52766;56.008;37.440;2023-02-01T08:33:36;23.63;;;10.18;;
65998;SDS011;52766;56.008;37.440;2023-02-01T08:47:06;26.20;;;10.20;;
65998;SDS011;52766;56.008;37.440;2023-02-01T08:49:45;26.88;;;9.90;;
65998;SDS011;52766;56.008;37.440;2023-02-01T08:52:21;29.17;;;10.23;;
65998;SDS011;52766;56.008;37.440;2023-02-01T08:55:00;34.85;;;12.05;;
65998;SDS011;52766;56.008;37.440;2023-02-01T08:57:29;31.85;;;10.80;;
65998;SDS011;52766;56.008;37.440;2023-02-01T09:00:14;24.92;;;9.32;;
65998;SDS011;52766;56.008;37.440;2023-02-01T09:03:53;30.20;;;9.95;;
65998;SDS011;52766;56.008;37.440;2023-02-01T09:06:40;32.53;;;10.80;;
65998;SDS011;52766;56.008;37.440;2023-02-01T09:09:13;18.50;;;6.78;;
65998;SDS011;52766;56.008;37.440;2023-02-01T09:11:44;28.42;;;10.32;;
65998;SDS011;52766;56.008;37.440;2023-02-01T09:14:11;34.88;;;12.00;;
65998;SDS011;52766;56.008;37.440;2023-02-01T09:16:38;27.17;;;11.52;;
65998;SDS011;52766;56.008;37.440;2023-02-01T09:19:07;34.10;;;11.70;;
65998;SDS011;52766;56.008;37.440;2023-02-01T09:21:36;30.88;;;10.57;;
65998;SDS011;52766;56.008;37.440;2023-02-01T09:24:09;25.98;;;10.55;;
65998;SDS011;52766;56.008;37.440;2023-02-01T09:26:37;30.35;;;11.25;;
65998;SDS011;52766;56.008;37.440;2023-02-01T09:29:07;25.88;;;10.05;;
65998;SDS011;52766;56.008;37.440;2023-02-01T09:31:36;25.45;;;8.48;;
65998;SDS011;52766;56.008;37.440;2023-02-01T09:34:10;26.38;;;10.18;;
65998;SDS011;52766;56.008;37.440;2023-02-01T09:36:44;23.55;;;9.32;;
65998;SDS011;52766;56.008;37.440;2023-02-01T09:39:13;30.83;;;10.73;;
65998;SDS011;52766;56.008;37.440;2023-02-01T09:47:20;31.58;;;11.15;;
65998;SDS011;52766;56.008;37.440;2023-02-01T09:50:11;32.15;;;11.10;;
65998;SDS011;52766;56.008;37.440;2023-02-01T09:52:52;26.65;;;9.90;;
65998;SDS011;52766;56.008;37.440;2023-02-01T09:55:28;26.98;;;10.77;;
65998;SDS011;52766;56.008;37.440;2023-02-01T10:00:51;25.65;;;10.68;;
65998;SDS011;52766;56.008;37.440;2023-02-01T10:03:34;29.70;;;9.85;;
65998;SDS011;52766;56.008;37.440;2023-02-01T10:09:42;30.90;;;11.13;;
65998;SDS011;52766;56.008;37.440;2023-02-01T10:15:50;29.20;;;10.55;;
65998;SDS011;52766;56.008;37.440;2023-02-01T10:24:53;27.00;;;10.27;;
65998;SDS011;52766;56.008;37.440;2023-02-01T10:27:34;25.33;;;9.98;;
65998;SDS011;52766;56.008;37.440;2023-02-01T10:32:43;32.63;;;11.88;;
65998;SDS011;52766;56.008;37.440;2023-02-01T10:35:18;36.60;;;13.13;;
65998;SDS011;52766;56.008;37.440;2023-02-01T10:38:02;22.45;;;9.95;;
65998;SDS011;52766;56.008;37.440;2023-02-01T10:40:44;31.10;;;11.40;;
65998;SDS011;52766;56.008;37.440;2023-02-01T10:43:14;28.50;;;10.95;;
65998;SDS011;52766;56.008;37.440;2023-02-01T10:45:43;32.50;;;11.10;;
65998;SDS011;52766;56.008;37.440;2023-02-01T10:48:10;19.17;;;8.07;;
65998;SDS011;52766;56.008;37.440;2023-02-01T10:50:44;24.15;;;9.13;;
65998;SDS011;52766;56.008;37.440;2023-02-01T10:53:32;33.72;;;11.00;;
65998;SDS011;52766;56.008;37.440;2023-02-01T10:56:07;25.65;;;11.32;;
65998;SDS011;52766;56.008;37.440;2023-02-01T10:58:34;26.10;;;10.60;;
65998;SDS011;52766;56.008;37.440;2023-02-01T11:01:07;23.70;;;10.85;;
65998;SDS011;52766;56.008;37.440;2023-02-01T11:06:03;30.05;;;11.35;;
65998;SDS011;52766;56.008;37.440;2023-02-01T11:08:54;31.60;;;9.98;;
65998;SDS011;52766;56.008;37.440;2023-02-01T11:11:23;28.20;;;10.82;;
65998;SDS011;52766;56.008;37.440;2023-02-01T11:16:41;25.17;;;10.48;;
65998;SDS011;52766;56.008;37.440;2023-02-01T11:23:10;28.50;;;10.45;;
65998;SDS011;52766;56.008;37.440;2023-02-01T11:25:47;29.75;;;11.07;;
65998;SDS011;52766;56.008;37.440;2023-02-01T11:28:18;27.30;;;10.68;;
65998;SDS011;52766;56.008;37.440;2023-02-01T11:30:51;24.45;;;11.23;;
65998;SDS011;52766;56.008;37.440;2023-02-01T11:33:32;22.30;;;10.27;;
65998;SDS011;52766;56.008;37.440;2023-02-01T11:36:14;23.45;;;9.68;;
65998;SDS011;52766;56.008;37.440;2023-02-01T11:38:46;25.13;;;9.52;;
65998;SDS011;52766;56.008;37.440;2023-02-01T11:41:27;27.60;;;11.60;;
65998;SDS011;52766;56.008;37.440;2023-02-01T11:43:57;26.52;;;11.20;;
65998;SDS011;52766;56.008;37.440;2023-02-01T11:49:15;23.15;;;8.95;;
65998;SDS011;52766;56.008;37.440;2023-02-01T11:54:53;21.85;;;9.18;;
65998;SDS011;52766;56.008;37.440;2023-02-01T11:57:48;25.67;;;10.35;;
65998;SDS011;52766;56.008;37.440;2023-02-01T12:03:26;22.50;;;10.13;;
65998;SDS011;52766;56.008;37.440;2023-02-01T12:06:11;25.52;;;9.43;;
65998;SDS011;52766;56.008;37.440;2023-02-01T12:12:05;19.60;;;9.02;;
65998;SDS011;52766;56.008;37.440;2023-02-01T12:14:59;20.55;;;8.40;;
65998;SDS011;52766;56.008;37.440;2023-02-01T12:17:38;25.80;;;10.05;;
65998;SDS011;52766;56.008;37.440;2023-02-01T12:20:37;21.58;;;9.23;;
65998;SDS011;52766;56.008;37.440;2023-02-01T12:24:11;21.17;;;9.15;;
65998;SDS011;52766;56.008;37.440;2023-02-01T12:32:31;21.10;;;9.57;;
65998;SDS011;52766;56.008;37.440;2023-02-01T12:37:38;24.33;;;10.90;;
65998;SDS011;52766;56.008;37.440;2023-02-01T12:48:40;25.35;;;10.45;;
65998;SDS011;52766;56.008;37.440;2023-02-01T12:52:00;28.23;;;11.68;;
65998;SDS011;52766;56.008;37.440;2023-02-01T13:01:34;23.45;;;9.80;;
65998;SDS011;52766;56.008;37.440;2023-02-01T13:10:43;31.42;;;12.48;;
65998;SDS011;52766;56.008;37.440;2023-02-01T13:13:16;27.13;;;11.55;;
65998;SDS011;52766;56.008;37.440;2023-02-01T13:19:49;29.75;;;10.57;;
65998;SDS011;52766;56.008;37.440;2023-02-01T13:22:10;26.70;;;11.95;;
65998;SDS011;52766;56.008;37.440;2023-02-01T13:28:25;29.92;;;12.35;;
65998;SDS011;52766;56.008;37.440;2023-02-01T13:37:18;29.75;;;10.65;;
65998;SDS011;52766;56.008;37.440;2023-02-01T13:43:02;26.83;;;10.88;;
65998;SDS011;52766;56.008;37.440;2023-02-01T13:48:58;19.77;;;9.32;;
65998;SDS011;52766;56.008;37.440;2023-02-01T13:51:45;24.70;;;10.55;;
65998;SDS011;52766;56.008;37.440;2023-02-01T13:57:30;20.42;;;8.98;;
65998;SDS011;52766;56.008;37.440;2023-02-01T14:18:59;18.42;;;8.00;;
65998;SDS011;52766;56.008;37.440;2023-02-01T14:24:43;25.20;;;9.70;;
65998;SDS011;52766;56.008;37.440;2023-02-01T14:30:16;25.75;;;9.98;;
65998;SDS011;52766;56.008;37.440;2023-02-01T14:32:50;20.85;;;9.07;;
65998;SDS011;52766;56.008;37.440;2023-02-01T14:35:26;25.10;;;9.80;;
65998;SDS011;52766;56.008;37.440;2023-02-01T14:38:01;20.92;;;7.88;;
65998;SDS011;52766;56.008;37.440;2023-02-01T14:43:50;19.48;;;9.95;;
65998;SDS011;52766;56.008;37.440;2023-02-01T14:59:11;20.00;;;8.15;;
65998;SDS011;52766;56.008;37.440;2023-02-01T15:01:48;20.02;;;8.38;;
65998;SDS011;52766;56.008;37.440;2023-02-01T15:04:24;23.58;;;9.05;;
65998;SDS011;52766;56.008;37.440;2023-02-01T15:06:57;22.15;;;8.90;;
65998;SDS011;52766;56.008;37.440;2023-02-01T15:09:47;21.95;;;8.45;;
65998;SDS011;52766;56.008;37.440;2023-02-01T15:12:24;20.40;;;8.52;;
65998;SDS011;52766;56.008;37.440;2023-02-01T15:15:14;20.50;;;8.48;;
65998;SDS011;52766;56.008;37.440;2023-02-01T15:17:50;21.83;;;9.10;;
65998;SDS011;52766;56.008;37.440;2023-02-01T15:20:24;19.60;;;8.43;;
65998;SDS011;52766;56.008;37.440;2023-02-01T15:22:52;19.85;;;8.50;;
65998;SDS011;52766;56.008;37.440;2023-02-01T15:25:27;21.58;;;8.55;;
65998;SDS011;52766;56.008;37.440;2023-02-01T15:27:58;16.92;;;7.50;;
65998;SDS011;52766;56.008;37.440;2023-02-01T15:30:33;17.65;;;7.97;;
65998;SDS011;52766;56.008;37.440;2023-02-01T15:33:16;21.77;;;8.43;;
65998;SDS011;52766;56.008;37.440;2023-02-01T15:36:08;20.70;;;8.85;;
65998;SDS011;52766;56.008;37.440;2023-02-01T15:38:42;19.63;;;7.63;;
65998;SDS011;52766;56.008;37.440;2023-02-01T15:41:22;20.95;;;7.85;;
65998;SDS011;52766;56.008;37.440;2023-02-01T15:46:32;17.70;;;7.28;;
65998;SDS011;52766;56.008;37.440;2023-02-01T15:49:01;16.58;;;6.28;;
65998;SDS011;52766;56.008;37.440;2023-02-01T15:51:43;22.52;;;7.47;;
65998;SDS011;52766;56.008;37.440;2023-02-01T15:54:59;17.92;;;7.25;;
65998;SDS011;52766;56.008;37.440;2023-02-01T15:57:36;16.30;;;6.25;;
65998;SDS011;52766;56.008;37.440;2023-02-01T16:05:46;14.05;;;6.10;;
65998;SDS011;52766;56.008;37.440;2023-02-01T16:08:27;18.58;;;7.70;;
65998;SDS011;52766;56.008;37.440;2023-02-01T16:11:13;16.10;;;6.75;;
65998;SDS011;52766;56.008;37.440;2023-02-01T16:16:57;13.02;;;5.70;;
65998;SDS011;52766;56.008;37.440;2023-02-01T16:19:34;14.23;;;6.32;;
65998;SDS011;52766;56.008;37.440;2023-02-01T16:22:03;19.25;;;7.35;;
65998;SDS011;52766;56.008;37.440;2023-02-01T16:24:44;18.77;;;7.10;;
65998;SDS011;52766;56.008;37.440;2023-02-01T16:27:30;19.08;;;7.35;;
65998;SDS011;52766;56.008;37.440;2023-02-01T16:29:56;17.23;;;7.18;;
65998;SDS011;52766;56.008;37.440;2023-02-01T16:36:36;17.30;;;6.95;;
65998;SDS011;52766;56.008;37.440;2023-02-01T16:39:03;19.20;;;7.63;;
65998;SDS011;52766;56.008;37.440;2023-02-01T16:41:30;22.30;;;7.63;;
65998;SDS011;52766;56.008;37.440;2023-02-01T16:43:57;21.67;;;8.40;;
65998;SDS011;52766;56.008;37.440;2023-02-01T16:48:59;23.00;;;8.70;;
65998;SDS011;52766;56.008;37.440;2023-02-01T16:51:27;10.77;;;4.18;;
65998;SDS011;52766;56.008;37.440;2023-02-01T16:53:58;20.77;;;7.47;;
65998;SDS011;52766;56.008;37.440;2023-02-01T16:59:18;16.35;;;7.68;;
65998;SDS011;52766;56.008;37.440;2023-02-01T17:12:41;19.70;;;7.05;;
65998;SDS011;52766;56.008;37.440;2023-02-01T17:15:29;18.85;;;6.97;;
65998;SDS011;52766;56.008;37.440;2023-02-01T17:18:28;17.88;;;7.80;;
65998;SDS011;52766;56.008;37.440;2023-02-01T17:21:38;21.30;;;7.43;;
65998;SDS011;52766;56.008;37.440;2023-02-01T17:24:47;16.73;;;6.80;;
65998;SDS011;52766;56.008;37.440;2023-02-01T17:27:18;18.55;;;7.70;;
65998;SDS011;52766;56.008;37.440;2023-02-01T17:29:47;20.15;;;8.60;;
65998;SDS011;52766;56.008;37.440;2023-02-01T17:32:41;17.35;;;7.55;;
65998;SDS011;52766;56.008;37.440;2023-02-01T17:35:22;22.83;;;7.88;;
65998;SDS011;52766;56.008;37.440;2023-02-01T17:37:50;20.02;;;8.45;;
65998;SDS011;52766;56.008;37.440;2023-02-01T17:40:19;22.08;;;8.80;;
65998;SDS011;52766;56.008;37.440;2023-02-01T17:42:53;23.95;;;8.25;;
65998;SDS011;52766;56.008;37.440;2023-02-01T17:49:10;20.80;;;8.85;;
65998;SDS011;52766;56.008;37.440;2023-02-01T17:51:41;21.50;;;9.10;;
65998;SDS011;52766;56.008;37.440;2023-02-01T17:54:22;24.48;;;8.27;;
65998;SDS011;52766;56.008;37.440;2023-02-01T17:57:26;22.23;;;9.32;;
65998;SDS011;52766;56.008;37.440;2023-02-01T18:00:26;27.20;;;9.70;;
65998;SDS011;52766;56.008;37.440;2023-02-01T18:02:55;19.65;;;8.40;;
65998;SDS011;52766;56.008;37.440;2023-02-01T18:08:02;25.73;;;9.40;;
65998;SDS011;52766;56.008;37.440;2023-02-01T18:10:29;21.08;;;7.85;;
65998;SDS011;52766;56.008;37.440;2023-02-01T18:13:03;22.55;;;8.35;;
65998;SDS011;52766;56.008;37.440;2023-02-01T18:15:33;20.05;;;9.35;;
65998;SDS011;52766;56.008;37.440;2023-02-01T18:18:12;27.58;;;9.45;;
65998;SDS011;52766;56.008;37.440;2023-02-01T18:20:40;24.13;;;8.55;;
65998;SDS011;52766;56.008;37.440;2023-02-01T18:23:14;24.20;;;10.38;;
65998;SDS011;52766;56.008;37.440;2023-02-01T18:25:41;19.60;;;8.70;;
65998;SDS011;52766;56.008;37.440;2023-02-01T18:28:08;23.00;;;8.50;;
65998;SDS011;52766;56.008;37.440;2023-02-01T18:34:17;20.55;;;8.90;;
65998;SDS011;52766;56.008;37.440;2023-02-01T18:36:49;21.48;;;9.13;;
65998;SDS011;52766;56.008;37.440;2023-02-01T18:39:38;24.75;;;9.65;;
65998;SDS011;52766;56.008;37.440;2023-02-01T18:42:35;20.40;;;8.30;;
65998;SDS011;52766;56.008;37.440;2023-02-01T18:45:01;21.80;;;8.23;;
65998;SDS011;52766;56.008;37.440;2023-02-01T18:47:33;23.63;;;9.05;;
65998;SDS011;52766;56.008;37.440;2023-02-01T18:50:10;22.80;;;8.90;;
65998;SDS011;52766;56.008;37.440;2023-02-01T18:52:41;24.30;;;8.43;;
65998;SDS011;52766;56.008;37.440;2023-02-01T18:55:08;21.95;;;9.27;;
65998;SDS011;52766;56.008;37.440;2023-02-01T18:57:41;23.13;;;8.25;;
65998;SDS011;52766;56.008;37.440;2023-02-01T19:00:15;22.63;;;8.88;;
65998;SDS011;52766;56.008;37.440;2023-02-01T19:02:55;19.33;;;8.77;;
65998;SDS011;52766;56.008;37.440;2023-02-01T19:05:44;20.35;;;9.05;;
65998;SDS011;52766;56.008;37.440;2023-02-01T19:08:23;21.40;;;8.77;;
65998;SDS011;52766;56.008;37.440;2023-02-01T19:10:53;25.85;;;8.70;;
65998;SDS011;52766;56.008;37.440;2023-02-01T19:13:19;21.25;;;9.23;;